Time;durP1;ratioP1;P1;durP2;ratioP2;P2;SDS_P1;SDS_P2;PMS_P1;PMS_P2;Temp;Humidity;BMP_temperature;BMP_pressure;BME280_temperature;BME280_humidity;BME280_pressure;Samples;Min_cycle;Max_cycle;Signal;HPM_P1;HPM_P2
2023/03/19 00:01:05;;;;;;;6.20;3.40;;;;;;;2.25;100.00;101257.79;105615;1296;22550;-75
2023/03/19 00:03:33;;;;;;;7.40;3.10;;;;;;;2.22;100.00;101257.58;105637;1296;22561;-74
2023/03/19 00:06:02;;;;;;;4.10;3.00;;;;;;;2.17;100.00;101258.59;105625;1296;25271;-74
2023/03/19 00:08:31;;;;;;;3.60;2.90;;;;;;;2.11;100.00;101258.00;105600;1296;25319;-74
2023/03/19 00:11:05;;;;;;;5.80;2.80;;;;;;;2.04;100.00;101253.27;105413;1296;26551;-75
2023/03/19 00:13:34;;;;;;;6.00;3.30;;;;;;;1.98;100.00;101261.60;105586;1296;24244;-74
2023/03/19 00:16:07;;;;;;;7.00;2.90;;;;;;;1.94;100.00;101257.21;105573;1296;25507;-75
2023/03/19 00:18:36;;;;;;;5.00;2.90;;;;;;;1.93;100.00;101254.23;105599;1296;22555;-76
2023/03/19 00:21:06;;;;;;;3.50;2.40;;;;;;;1.94;100.00;101257.70;105584;1296;25323;-74
2023/03/19 00:23:36;;;;;;;6.50;2.80;;;;;;;1.97;100.00;101255.59;105634;1296;25407;-77
2023/03/19 00:26:05;;;;;;;2.70;2.50;;;;;;;1.99;100.00;101257.81;104855;1296;1003668;-75
2023/03/19 00:28:40;;;;;;;4.40;2.60;;;;;;;1.99;100.00;101258.00;105594;1296;25442;-75
2023/03/19 00:31:11;;;;;;;2.50;2.30;;;;;;;1.99;100.00;101254.95;105605;1296;25435;-76
2023/03/19 00:33:40;;;;;;;3.10;2.60;;;;;;;2.01;100.00;101252.67;105393;1296;22574;-78
2023/03/19 00:36:09;;;;;;;2.90;2.50;;;;;;;2.03;100.00;101251.15;105563;1296;22565;-77
2023/03/19 00:38:40;;;;;;;4.90;2.50;;;;;;;2.06;100.00;101250.27;105475;1296;25419;-75
2023/03/19 00:41:08;;;;;;;5.80;2.90;;;;;;;2.08;100.00;101247.66;105601;1296;25426;-75
2023/03/19 00:43:37;;;;;;;3.00;2.40;;;;;;;2.11;100.00;101247.88;105594;1296;25426;-75
2023/03/19 00:46:06;;;;;;;4.00;2.80;;;;;;;2.14;100.00;101245.75;105558;1296;25388;-75
2023/03/19 00:48:36;;;;;;;3.70;2.60;;;;;;;2.18;100.00;101246.25;105358;1296;26522;-75
2023/03/19 00:51:07;;;;;;;5.00;2.80;;;;;;;2.19;100.00;101243.53;105262;1296;25403;-75
2023/03/19 00:53:41;;;;;;;7.80;3.30;;;;;;;2.20;100.00;101240.06;105531;1296;22569;-75
2023/03/19 00:56:10;;;;;;;5.90;3.10;;;;;;;2.23;100.00;101241.65;105456;1296;25708;-75
2023/03/19 00:58:41;;;;;;;5.00;3.20;;;;;;;2.26;100.00;101240.09;105581;1296;25331;-74
2023/03/19 01:01:12;;;;;;;6.90;3.50;;;;;;;2.27;100.00;101238.25;105595;1296;25455;-74
2023/03/19 01:03:44;;;;;;;7.60;3.50;;;;;;;2.28;100.00;101234.48;105434;1296;22609;-75
2023/03/19 01:06:12;;;;;;;7.20;3.70;;;;;;;2.28;100.00;101235.88;105619;1296;22673;-75
2023/03/19 01:08:43;;;;;;;7.30;4.10;;;;;;;2.31;100.00;101238.55;105581;1296;25382;-75
2023/03/19 01:11:17;;;;;;;7.70;3.80;;;;;;;2.32;100.00;101242.23;105622;1296;23890;-75
2023/03/19 01:13:46;;;;;;;10.50;4.20;;;;;;;2.34;100.00;101248.55;105498;1296;25391;-75
2023/03/19 01:16:17;;;;;;;11.20;4.10;;;;;;;2.34;100.00;101245.13;105607;1296;26801;-74
2023/03/19 01:18:48;;;;;;;9.80;4.70;;;;;;;2.35;100.00;101250.79;105604;1296;25458;-76
2023/03/19 01:21:17;;;;;;;8.40;3.90;;;;;;;2.34;100.00;101250.31;105654;1296;26610;-75
2023/03/19 01:23:48;;;;;;;4.30;3.40;;;;;;;2.33;100.00;101249.34;105572;1296;25490;-76
2023/03/19 01:26:17;;;;;;;11.50;3.50;;;;;;;2.32;100.00;101246.86;105559;1296;22578;-75
2023/03/19 01:28:47;;;;;;;5.50;3.60;;;;;;;2.32;100.00;101248.64;105581;1296;26657;-74
2023/03/19 01:31:17;;;;;;;7.70;3.40;;;;;;;2.31;100.00;101247.48;105399;1296;25426;-74
2023/03/19 01:33:54;;;;;;;6.60;3.80;;;;;;;2.29;100.00;101249.00;105601;1296;22591;-74
2023/03/19 01:36:46;;;;;;;9.00;4.00;;;;;;;2.30;100.00;101262.08;105467;1296;22546;-75
2023/03/19 01:39:17;;;;;;;5.20;3.40;;;;;;;2.30;100.00;101253.23;105606;1296;22563;-73
2023/03/19 01:41:47;;;;;;;8.80;3.60;;;;;;;2.29;100.00;101247.77;105623;1296;25297;-75
2023/03/19 01:44:37;;;;;;;6.60;3.90;;;;;;;2.27;100.00;101257.98;105580;1296;25279;-73
2023/03/19 01:47:21;;;;;;;9.60;3.90;;;;;;;2.25;100.00;101256.48;105567;1296;24304;-74
2023/03/19 01:50:21;;;;;;;9.00;3.60;;;;;;;2.26;100.00;101256.45;105602;1296;25275;-75
2023/03/19 01:52:53;;;;;;;4.90;3.00;;;;;;;2.25;100.00;101246.88;105412;1296;26746;-74
2023/03/19 01:55:27;;;;;;;4.10;3.00;;;;;;;2.23;100.00;101242.02;105455;1296;26676;-74
2023/03/19 01:58:13;;;;;;;7.40;3.10;;;;;;;2.22;100.00;101249.92;104899;1296;1002997;-74
2023/03/19 02:01:07;;;;;;;8.40;3.00;;;;;;;2.21;100.00;101252.83;104426;1296;1002566;-75
2023/03/19 02:03:38;;;;;;;5.10;3.30;;;;;;;2.18;100.00;101246.98;105483;1296;25451;-74
2023/03/19 02:06:29;;;;;;;7.50;3.40;;;;;;;2.17;100.00;101255.55;105787;1296;25989;-75
2023/03/19 02:08:59;;;;;;;8.50;3.70;;;;;;;2.16;100.00;101250.27;105933;1296;25391;-75
2023/03/19 02:11:29;;;;;;;10.10;3.20;;;;;;;2.14;100.00;101248.98;105692;1296;25446;-75
2023/03/19 02:13:58;;;;;;;7.40;3.70;;;;;;;2.13;100.00;101252.58;105140;1296;26695;-75
2023/03/19 02:16:27;;;;;;;9.10;3.40;;;;;;;2.12;100.00;101247.98;105616;1296;25519;-75
2023/03/19 02:18:56;;;;;;;5.00;3.40;;;;;;;2.13;100.00;101251.88;105589;1296;25478;-76
2023/03/19 02:21:26;;;;;;;6.20;3.30;;;;;;;2.13;100.00;101253.80;105366;1296;26681;-74
2023/03/19 02:24:06;;;;;;;6.90;3.50;;;;;;;2.13;100.00;101254.70;105408;1296;22536;-75
2023/03/19 02:26:49;;;;;;;6.20;3.40;;;;;;;2.14;100.00;101268.88;105595;1296;22548;-75
2023/03/19 02:29:18;;;;;;;9.40;4.30;;;;;;;2.14;100.00;101259.99;105172;1296;25414;-74
2023/03/19 02:31:47;;;;;;;9.50;4.00;;;;;;;2.13;100.00;101261.80;105662;1296;25465;-76
2023/03/19 02:34:20;;;;;;;11.80;4.20;;;;;;;2.13;100.00;101262.02;104889;1296;1003756;-75
2023/03/19 02:37:20;;;;;;;11.40;5.00;;;;;;;2.14;100.00;101262.99;105491;1296;25370;-75
2023/03/19 02:39:56;;;;;;;10.10;4.60;;;;;;;2.17;100.00;101279.23;105301;1296;25337;-76
2023/03/19 02:42:26;;;;;;;13.80;4.60;;;;;;;2.18;100.00;101268.83;105364;1296;22835;-76
2023/03/19 02:44:55;;;;;;;8.80;4.00;;;;;;;2.18;100.00;101267.22;105398;1296;25277;-75
2023/03/19 02:47:31;;;;;;;9.90;4.70;;;;;;;2.19;100.00;101271.63;105605;1296;25531;-76
2023/03/19 02:50:00;;;;;;;7.50;4.10;;;;;;;2.17;100.00;101267.10;104861;1296;1003550;-78
2023/03/19 02:52:29;;;;;;;11.70;5.00;;;;;;;2.15;100.00;101269.51;105581;1296;25370;-76
2023/03/19 02:54:57;;;;;;;8.50;4.30;;;;;;;2.15;100.00;101267.41;105597;1296;22563;-79
2023/03/19 02:57:26;;;;;;;9.60;4.80;;;;;;;2.15;100.00;101270.61;105365;1296;26684;-76
2023/03/19 03:00:01;;;;;;;10.80;4.70;;;;;;;2.15;100.00;101270.79;105570;1296;25386;-75
2023/03/19 03:02:31;;;;;;;6.60;4.00;;;;;;;2.14;100.00;101265.68;105584;1296;25448;-75
2023/03/19 03:04:59;;;;;;;10.40;4.70;;;;;;;2.14;100.00;101268.89;105623;1296;23885;-75
2023/03/19 03:07:28;;;;;;;8.00;3.90;;;;;;;2.13;100.00;101268.77;105586;1296;25474;-74
2023/03/19 03:09:58;;;;;;;9.50;4.00;;;;;;;2.14;100.00;101274.23;105598;1296;26782;-74
2023/03/19 03:12:27;;;;;;;11.10;3.90;;;;;;;2.14;100.00;101269.26;105397;1296;25316;-75
2023/03/19 03:14:57;;;;;;;9.80;3.80;;;;;;;2.12;100.00;101272.04;105578;1296;25322;-74
2023/03/19 03:17:26;;;;;;;7.00;3.40;;;;;;;2.10;100.00;101267.31;105576;1296;22547;-75
2023/03/19 03:19:57;;;;;;;7.50;3.80;;;;;;;2.10;100.00;101267.69;104895;1296;1003614;-74
2023/03/19 03:22:26;;;;;;;8.30;3.30;;;;;;;2.09;100.00;101270.95;105363;1297;25295;-75
2023/03/19 03:24:55;;;;;;;7.00;3.50;;;;;;;2.07;100.00;101272.45;105623;1296;26535;-75
2023/03/19 03:27:23;;;;;;;4.10;3.40;;;;;;;2.06;100.00;101270.20;105391;1296;22557;-75
2023/03/19 03:29:52;;;;;;;6.80;3.50;;;;;;;2.05;100.00;101273.65;105621;1296;25421;-74
2023/03/19 03:32:21;;;;;;;6.80;3.20;;;;;;;2.05;100.00;101270.26;105577;1296;22550;-75
2023/03/19 03:34:51;;;;;;;6.10;3.40;;;;;;;2.05;100.00;101273.66;105601;1296;26556;-75
2023/03/19 03:37:20;;;;;;;8.10;3.40;;;;;;;2.06;100.00;101266.67;105379;1296;25515;-77
2023/03/19 03:39:48;;;;;;;7.40;3.70;;;;;;;2.04;100.00;101265.73;105585;1296;23027;-77
2023/03/19 03:42:18;;;;;;;8.50;3.80;;;;;;;2.02;100.00;101267.04;104873;1296;1003342;-75
2023/03/19 03:44:47;;;;;;;8.30;4.30;;;;;;;2.02;100.00;101266.16;105616;1296;22548;-74
2023/03/19 03:47:19;;;;;;;12.90;4.70;;;;;;;2.03;100.00;101266.46;105523;1296;25705;-75
2023/03/19 03:49:48;;;;;;;11.60;4.60;;;;;;;2.04;100.00;101267.52;105378;1296;25317;-75
2023/03/19 03:52:16;;;;;;;12.90;5.90;;;;;;;2.05;100.00;101267.40;105609;1296;25381;-74
2023/03/19 03:54:45;;;;;;;7.90;4.40;;;;;;;2.06;100.00;101265.09;105416;1297;22546;-75
2023/03/19 03:57:13;;;;;;;13.00;5.00;;;;;;;2.06;100.00;101266.98;105611;1296;25360;-74
2023/03/19 03:59:45;;;;;;;13.90;5.50;;;;;;;2.07;100.00;101270.14;105569;1296;25395;-75
2023/03/19 04:02:14;;;;;;;11.20;4.90;;;;;;;2.06;100.00;101270.02;105514;1296;23763;-74
2023/03/19 04:04:43;;;;;;;12.50;5.20;;;;;;;2.02;100.00;101270.09;105152;1296;25406;-75
2023/03/19 04:07:12;;;;;;;11.00;4.90;;;;;;;2.01;100.00;101265.19;105365;1296;25630;-75
2023/03/19 04:09:45;;;;;;;10.50;5.30;;;;;;;2.01;100.00;101268.70;105622;1296;22550;-75
2023/03/19 04:12:13;;;;;;;9.60;4.60;;;;;;;2.02;100.00;101259.77;105149;1296;26691;-76
2023/03/19 04:14:47;;;;;;;13.70;4.70;;;;;;;2.03;100.00;101265.20;105618;1296;26540;-75
2023/03/19 04:17:17;;;;;;;9.20;4.90;;;;;;;2.05;100.00;101260.15;105607;1296;22548;-75
2023/03/19 04:19:46;;;;;;;9.70;4.60;;;;;;;2.05;100.00;101260.30;105371;1296;23939;-75
2023/03/19 04:22:16;;;;;;;8.70;4.50;;;;;;;2.06;100.00;101265.06;104926;1296;1003577;-76
2023/03/19 04:24:44;;;;;;;13.90;4.60;;;;;;;2.06;100.00;101261.29;105424;1296;23124;-77
2023/03/19 04:27:13;;;;;;;8.10;4.30;;;;;;;2.09;100.00;101265.94;105633;1296;25274;-76
2023/03/19 04:29:42;;;;;;;9.80;4.50;;;;;;;2.12;100.00;101261.38;105459;1296;25335;-74
2023/03/19 04:32:11;;;;;;;8.70;4.20;;;;;;;2.12;100.00;101264.55;105505;1296;25480;-75
2023/03/19 04:34:40;;;;;;;10.60;4.40;;;;;;;2.10;100.00;101270.19;105394;1296;24404;-75
2023/03/19 04:37:10;;;;;;;8.20;3.80;;;;;;;2.08;100.00;101268.85;105609;1296;25451;-75
2023/03/19 04:39:45;;;;;;;7.50;4.10;;;;;;;2.11;100.00;101272.63;106496;1296;22588;-72
2023/03/19 04:42:15;;;;;;;9.60;3.50;;;;;;;2.14;100.00;101274.04;108897;1296;22586;-73
2023/03/19 04:45:00;;;;;;;13.30;4.00;;;;;;;2.18;100.00;101283.25;105998;1296;25451;-75
2023/03/19 04:47:29;;;;;;;6.50;3.90;;;;;;;2.20;100.00;101277.42;105368;1296;26679;-75
2023/03/19 04:49:59;;;;;;;7.80;3.80;;;;;;;2.22;100.00;101278.38;105615;1296;25526;-74
2023/03/19 04:52:30;;;;;;;11.60;3.90;;;;;;;2.24;100.00;101281.44;105616;1296;25430;-75
2023/03/19 04:54:59;;;;;;;7.60;3.70;;;;;;;2.26;100.00;101286.20;104661;1296;1003025;-75
2023/03/19 04:57:28;;;;;;;8.30;3.70;;;;;;;2.26;100.00;101286.36;105322;1296;26557;-76
2023/03/19 04:59:58;;;;;;;10.20;3.90;;;;;;;2.25;100.00;101279.65;105641;1296;25289;-75
2023/03/19 05:02:26;;;;;;;10.40;4.60;;;;;;;2.23;100.00;101282.77;105398;1296;22557;-75
2023/03/19 05:04:56;;;;;;;13.00;4.00;;;;;;;2.21;100.00;101280.91;105391;1296;25393;-74
2023/03/19 05:07:25;;;;;;;6.20;3.20;;;;;;;2.22;100.00;101279.27;105301;1296;22561;-76
2023/03/19 05:09:53;;;;;;;9.50;3.80;;;;;;;2.24;100.00;101281.66;105411;1296;25329;-76
2023/03/19 05:12:23;;;;;;;11.50;3.70;;;;;;;2.27;100.00;101276.86;105279;1296;25389;-76
2023/03/19 05:14:51;;;;;;;10.70;4.00;;;;;;;2.29;100.00;101276.38;105615;1296;25596;-75
2023/03/19 05:17:43;;;;;;;7.70;3.70;;;;;;;2.35;100.00;101291.19;105557;1296;25344;-75
2023/03/19 05:20:24;;;;;;;7.60;3.90;;;;;;;2.41;100.00;101288.18;105630;1289;26679;-76
2023/03/19 05:23:01;;;;;;;14.50;5.20;;;;;;;2.45;100.00;101287.38;105672;1296;25405;-75
2023/03/19 05:25:37;;;;;;;14.60;5.00;;;;;;;2.49;100.00;101288.44;105679;1296;25526;-75
2023/03/19 05:28:07;;;;;;;11.90;4.90;;;;;;;2.52;100.00;101284.38;105688;1296;26658;-75
2023/03/19 05:30:37;;;;;;;13.10;5.10;;;;;;;2.54;100.00;101280.27;105651;1296;26627;-75
2023/03/19 05:33:12;;;;;;;13.20;4.80;;;;;;;2.57;100.00;101281.56;105684;1296;26645;-75
2023/03/19 05:35:44;;;;;;;10.90;4.40;;;;;;;2.58;100.00;101280.05;105636;1296;26692;-75
2023/03/19 05:38:27;;;;;;;;;;;;;;;2.59;100.00;101283.21;105464;1296;25570;-74
2023/03/19 05:41:03;;;;;;;12.00;5.00;;;;;;;2.62;100.00;101276.96;105654;1296;25572;-76
2023/03/19 05:43:40;;;;;;;14.60;5.50;;;;;;;2.67;100.00;101281.65;105448;1296;22549;-75
2023/03/19 05:46:13;;;;;;;12.40;4.80;;;;;;;2.66;100.00;101279.57;105692;1296;23914;-74
2023/03/19 05:48:43;;;;;;;11.60;4.80;;;;;;;2.65;100.00;101279.26;105688;1296;25462;-76
2023/03/19 05:51:16;;;;;;;15.10;6.90;;;;;;;2.67;100.00;101280.94;105657;1296;25449;-76
2023/03/19 05:53:46;;;;;;;18.10;5.70;;;;;;;2.69;100.00;101269.83;105177;1296;22549;-78
2023/03/19 05:56:40;;;;;;;16.50;6.00;;;;;;;2.71;100.00;101286.95;104838;1296;1003581;-77
2023/03/19 05:59:35;;;;;;;15.40;5.70;;;;;;;2.75;100.00;101286.73;105342;1296;25320;-75
2023/03/19 06:02:24;;;;;;;13.20;6.10;;;;;;;2.77;100.00;101284.68;105434;1296;26773;-76
2023/03/19 06:04:59;;;;;;;15.30;4.90;;;;;;;2.80;100.00;101280.93;105635;1296;26669;-76
2023/03/19 06:07:30;;;;;;;12.30;4.70;;;;;;;2.84;100.00;101275.33;105474;1296;270568;-76
2023/03/19 06:09:59;;;;;;;9.50;4.10;;;;;;;2.89;100.00;101275.79;105631;1296;22558;-76
2023/03/19 06:12:28;;;;;;;10.50;4.70;;;;;;;2.89;100.00;101277.70;105647;1295;26774;-77
2023/03/19 06:15:16;;;;;;;13.30;4.80;;;;;;;2.88;100.00;101287.59;105638;1296;25449;-76
2023/03/19 06:17:45;;;;;;;9.90;4.60;;;;;;;2.86;100.00;101276.64;105642;1296;25440;-77
2023/03/19 06:20:15;;;;;;;15.70;4.80;;;;;;;2.90;100.00;101272.70;105458;1296;22558;-78
2023/03/19 06:22:44;;;;;;;10.60;4.40;;;;;;;2.96;100.00;101273.05;105471;1296;22563;-76
2023/03/19 06:25:14;;;;;;;12.10;4.30;;;;;;;2.99;100.00;101271.41;105422;1296;22574;-74
2023/03/19 06:27:45;;;;;;;9.50;4.00;;;;;;;2.95;100.00;101277.52;105394;1296;25331;-75
2023/03/19 06:30:24;;;;;;;12.70;4.10;;;;;;;2.92;100.00;101281.63;105416;1296;25400;-76
2023/03/19 06:32:58;;;;;;;10.80;3.90;;;;;;;2.92;100.00;101280.42;105628;1296;25560;-76
2023/03/19 06:35:26;;;;;;;11.60;4.10;;;;;;;2.94;100.00;101274.59;105492;1296;22547;-75
2023/03/19 06:37:55;;;;;;;10.20;4.30;;;;;;;2.95;100.00;101272.02;104716;1296;1003551;-75
2023/03/19 06:40:24;;;;;;;9.70;3.90;;;;;;;2.95;100.00;101265.63;105652;1296;22680;-77
2023/03/19 06:42:52;;;;;;;14.60;4.00;;;;;;;2.97;100.00;101264.95;105491;1296;25564;-77
2023/03/19 06:45:27;;;;;;;12.70;4.00;;;;;;;3.03;100.00;101267.09;105501;1296;26822;-76
2023/03/19 06:47:56;;;;;;;7.10;3.50;;;;;;;3.08;100.00;101265.19;105584;1296;25509;-75
2023/03/19 06:50:26;;;;;;;12.30;4.20;;;;;;;3.11;100.00;101264.31;105542;1296;25384;-75
2023/03/19 06:52:54;;;;;;;10.20;4.60;;;;;;;3.15;100.00;101260.33;105599;1296;22548;-75
2023/03/19 06:55:23;;;;;;;10.90;4.30;;;;;;;3.20;100.00;101267.48;105533;1296;22550;-78
2023/03/19 06:57:51;;;;;;;13.70;5.20;;;;;;;3.26;100.00;101263.38;104678;1296;1003070;-75
2023/03/19 07:00:20;;;;;;;11.90;4.90;;;;;;;3.35;100.00;101261.06;105665;1296;23775;-78
2023/03/19 07:02:50;;;;;;;12.80;4.60;;;;;;;3.42;100.00;101255.59;105351;1296;22977;-74
2023/03/19 07:05:21;;;;;;;13.70;4.20;;;;;;;3.45;100.00;101257.05;105285;1296;25439;-75
2023/03/19 07:07:50;;;;;;;13.50;4.90;;;;;;;3.48;100.00;101254.40;105445;1296;25378;-78
2023/03/19 07:10:19;;;;;;;13.30;5.40;;;;;;;3.55;100.00;101255.20;105691;1296;25532;-74
2023/03/19 07:12:49;;;;;;;13.60;5.60;;;;;;;3.62;100.00;101253.47;105850;1296;25470;-75
2023/03/19 07:15:20;;;;;;;11.00;4.90;;;;;;;3.68;100.00;101254.52;108615;1296;27595;-75
2023/03/19 07:17:49;;;;;;;17.10;4.60;;;;;;;3.74;100.00;101255.04;107273;1296;25515;-74
2023/03/19 07:20:21;;;;;;;15.60;5.10;;;;;;;3.80;100.00;101251.99;105841;1296;25369;-76
2023/03/19 07:22:50;;;;;;;17.10;5.00;;;;;;;3.82;100.00;101251.00;105809;1296;26550;-76
2023/03/19 07:25:19;;;;;;;14.50;5.70;;;;;;;3.85;100.00;101254.52;105309;1296;24317;-80
2023/03/19 07:27:48;;;;;;;18.10;5.80;;;;;;;3.84;100.00;101249.94;105276;1296;23183;-76
2023/03/19 07:30:17;;;;;;;12.60;5.00;;;;;;;3.82;100.00;101250.45;105562;1296;26522;-75
2023/03/19 07:32:46;;;;;;;15.00;5.60;;;;;;;3.82;100.00;101255.48;105319;1296;26629;-77
2023/03/19 07:35:15;;;;;;;14.20;5.30;;;;;;;3.81;100.00;101257.84;105606;1296;26608;-74
2023/03/19 07:37:44;;;;;;;13.40;5.30;;;;;;;3.82;100.00;101254.56;105721;1296;22483;-75
2023/03/19 07:40:18;;;;;;;13.00;5.80;;;;;;;3.84;100.00;101254.42;105908;1296;25420;-76
2023/03/19 07:42:48;;;;;;;18.10;5.70;;;;;;;3.90;100.00;101248.50;105834;1296;26526;-73
2023/03/19 07:45:17;;;;;;;12.60;5.20;;;;;;;3.97;100.00;101238.39;105880;1296;22575;-74
2023/03/19 07:47:46;;;;;;;18.20;5.90;;;;;;;4.03;100.00;101238.23;105539;1296;25297;-74
2023/03/19 07:50:18;;;;;;;16.60;6.00;;;;;;;4.07;100.00;101236.69;105656;1296;25276;-75
2023/03/19 07:52:47;;;;;;;19.60;7.10;;;;;;;4.15;100.00;101235.12;105484;1296;25404;-77
2023/03/19 07:55:16;;;;;;;20.10;6.90;;;;;;;4.25;100.00;101230.75;105762;1296;24278;-75
2023/03/19 07:57:45;;;;;;;19.20;6.80;;;;;;;4.35;100.00;101232.02;105688;1296;25382;-76
2023/03/19 08:00:14;;;;;;;19.80;6.20;;;;;;;4.44;100.00;101235.38;105657;1296;24033;-76
2023/03/19 08:02:46;;;;;;;19.10;5.30;;;;;;;4.54;100.00;101240.58;105661;1296;25435;-77
2023/03/19 08:05:15;;;;;;;16.20;6.90;;;;;;;4.65;100.00;101236.42;105680;1296;26574;-76
2023/03/19 08:07:48;;;;;;;23.20;8.40;;;;;;;4.73;100.00;101238.61;105572;1296;25388;-78
2023/03/19 08:10:16;;;;;;;19.50;7.30;;;;;;;4.72;100.00;101238.14;105669;1296;24256;-75
2023/03/19 08:12:45;;;;;;;11.90;5.70;;;;;;;4.74;100.00;101239.04;105560;1296;25990;-78
2023/03/19 08:15:15;;;;;;;12.20;5.30;;;;;;;4.77;100.00;101244.23;105425;1296;26561;-76
2023/03/19 08:17:46;;;;;;;21.50;6.60;;;;;;;4.81;100.00;101247.34;105670;1296;25452;-76
2023/03/19 08:20:15;;;;;;;21.00;6.20;;;;;;;4.89;100.00;101246.05;105592;1296;25489;-76
2023/03/19 08:22:48;;;;;;;19.80;5.90;;;;;;;4.99;100.00;101246.35;105322;1296;26643;-75
2023/03/19 08:25:17;;;;;;;13.50;5.60;;;;;;;4.95;100.00;101249.98;105646;1296;25277;-76
2023/03/19 08:27:46;;;;;;;23.70;6.40;;;;;;;4.95;100.00;101249.45;104741;1296;1002945;-76
2023/03/19 08:30:16;;;;;;;17.60;6.00;;;;;;;5.01;100.00;101237.96;105187;1296;22618;-76
2023/03/19 08:32:45;;;;;;;14.30;6.60;;;;;;;5.00;100.00;101239.25;105445;1296;25455;-76
2023/03/19 08:35:20;;;;;;;15.00;6.00;;;;;;;5.00;100.00;101242.27;105380;1296;26716;-75
2023/03/19 08:37:48;;;;;;;18.70;5.60;;;;;;;5.09;100.00;101231.71;105657;1296;25541;-76
2023/03/19 08:40:17;;;;;;;10.70;5.00;;;;;;;5.13;100.00;101235.11;105677;1296;25422;-76
2023/03/19 08:42:46;;;;;;;16.00;6.40;;;;;;;5.20;100.00;101233.77;105508;1296;23786;-75
2023/03/19 08:45:15;;;;;;;13.10;5.30;;;;;;;5.36;100.00;101231.23;105667;1296;26559;-74
2023/03/19 08:47:43;;;;;;;15.30;5.30;;;;;;;5.49;100.00;101233.89;105465;1296;25473;-75
2023/03/19 08:50:14;;;;;;;11.80;4.70;;;;;;;5.58;100.00;101230.61;105547;1296;25440;-75
2023/03/19 08:52:43;;;;;;;15.30;5.50;;;;;;;5.55;100.00;101235.25;105447;1296;25640;-75
2023/03/19 08:55:12;;;;;;;12.80;5.60;;;;;;;5.56;100.00;101236.45;105685;1296;25318;-75
2023/03/19 08:57:44;;;;;;;15.80;6.30;;;;;;;5.60;100.00;101234.02;105678;1296;25255;-76
2023/03/19 09:00:13;;;;;;;19.70;7.30;;;;;;;5.65;100.00;101231.63;105631;1296;22581;-74
2023/03/19 09:02:49;;;;;;;14.50;6.40;;;;;;;5.67;100.00;101229.71;105733;1296;25465;-77
2023/03/19 09:05:24;;;;;;;15.50;6.20;;;;;;;5.68;100.00;101230.40;105378;1296;23811;-76
2023/03/19 09:08:14;;;;;;;15.30;6.10;;;;;;;5.65;100.00;101234.34;105535;1296;25473;-75
2023/03/19 09:10:49;;;;;;;14.20;6.70;;;;;;;5.61;100.00;101227.70;105680;1296;25558;-76
2023/03/19 09:13:23;;;;;;;14.60;6.10;;;;;;;5.53;100.00;101221.80;105479;1297;25399;-75
2023/03/19 09:15:52;;;;;;;12.00;5.40;;;;;;;5.56;100.00;101219.25;105472;1297;23828;-75
2023/03/19 09:18:28;;;;;;;14.90;5.60;;;;;;;5.66;100.00;101214.26;105325;1292;25920;-75
2023/03/19 09:20:57;;;;;;;14.90;5.60;;;;;;;5.79;100.00;101208.14;105299;1297;25476;-76
2023/03/19 09:23:26;;;;;;;13.40;5.90;;;;;;;5.85;100.00;101202.86;105355;1297;22549;-75
2023/03/19 09:25:54;;;;;;;16.60;5.80;;;;;;;5.86;100.00;101203.85;105363;1297;22556;-74
2023/03/19 09:28:23;;;;;;;14.00;6.00;;;;;;;5.86;100.00;101205.81;105410;1297;23915;-76
2023/03/19 09:30:51;;;;;;;18.30;6.90;;;;;;;5.89;100.00;101213.98;105328;1297;24337;-76
2023/03/19 09:33:21;;;;;;;17.60;6.40;;;;;;;5.97;100.00;101208.98;105391;1297;25458;-77
2023/03/19 09:35:54;;;;;;;15.10;6.10;;;;;;;5.99;100.00;101208.46;105342;1297;22674;-75
2023/03/19 09:38:27;;;;;;;15.80;6.70;;;;;;;6.01;100.00;101208.84;105309;1297;23891;-76
2023/03/19 09:41:20;;;;;;;19.60;6.20;;;;;;;6.06;100.00;101202.98;105460;1297;22914;-78
2023/03/19 09:43:57;;;;;;;21.60;6.30;;;;;;;6.08;100.00;101206.39;105492;1297;23407;-75
2023/03/19 09:46:29;;;;;;;10.50;5.80;;;;;;;6.05;100.00;101208.95;105442;1297;23789;-76
2023/03/19 09:49:11;;;;;;;14.00;5.20;;;;;;;6.10;100.00;101201.45;108820;1297;22378;-75
2023/03/19 09:51:51;;;;;;;12.80;6.20;;;;;;;6.24;100.00;101197.66;107816;1297;25466;-74
2023/03/19 09:54:26;;;;;;;19.40;6.30;;;;;;;6.44;100.00;101185.27;106449;1297;25437;-76
2023/03/19 09:56:59;;;;;;;17.00;5.80;;;;;;;6.57;100.00;101182.83;105304;1297;23135;-74
2023/03/19 09:59:27;;;;;;;15.10;6.10;;;;;;;6.69;100.00;101179.98;105409;1297;24079;-75
2023/03/19 10:02:29;;;;;;;20.90;6.20;;;;;;;6.82;100.00;101176.63;105547;1297;25409;-76
2023/03/19 10:05:30;;;;;;;12.50;5.80;;;;;;;6.93;100.00;101182.61;105443;1297;24294;-74
2023/03/19 10:08:31;;;;;;;17.00;7.40;;;;;;;7.15;100.00;101169.94;105370;1297;25357;-75
2023/03/19 10:11:35;;;;;;;13.40;6.00;;;;;;;7.27;100.00;101167.06;105470;1296;24319;-75
2023/03/19 10:14:04;;;;;;;16.40;6.00;;;;;;;7.37;100.00;101172.88;105665;1296;25574;-74
2023/03/19 10:16:33;;;;;;;10.60;5.10;;;;;;;7.39;100.00;101160.35;105677;1296;25446;-76
2023/03/19 10:19:02;;;;;;;17.20;6.00;;;;;;;7.37;100.00;101163.88;105498;1296;22547;-76
2023/03/19 10:21:34;;;;;;;21.80;6.40;;;;;;;7.44;100.00;101153.48;105523;1296;25400;-77
2023/03/19 10:24:11;;;;;;;11.60;5.40;;;;;;;7.54;100.00;101151.55;105661;1296;22546;-76
2023/03/19 10:26:39;;;;;;;17.50;5.30;;;;;;;7.55;100.00;101161.03;105669;1296;22555;-77
2023/03/19 10:29:17;;;;;;;10.70;4.60;;;;;;;7.49;100.00;101159.56;105486;1296;22661;-77
2023/03/19 10:31:55;;;;;;;14.30;5.50;;;;;;;7.41;100.00;101160.55;105512;1296;22680;-76
2023/03/19 10:34:36;;;;;;;13.90;5.70;;;;;;;7.36;100.00;101155.16;105467;1296;25280;-76
2023/03/19 10:37:13;;;;;;;12.50;5.80;;;;;;;7.42;100.00;101153.09;105699;1296;25297;-76
2023/03/19 10:39:47;;;;;;;14.60;5.50;;;;;;;7.45;100.00;101144.77;105682;1296;25448;-77
2023/03/19 10:42:54;;;;;;;19.00;5.80;;;;;;;7.46;100.00;101146.85;105549;1296;22598;-77
2023/03/19 10:45:28;;;;;;;14.20;5.50;;;;;;;7.52;100.00;101147.82;104888;1296;1003572;-77
2023/03/19 10:47:58;;;;;;;10.50;5.00;;;;;;;7.54;100.00;101146.02;105646;1296;24399;-77
2023/03/19 10:50:37;;;;;;;10.40;4.70;;;;;;;7.59;100.00;101143.23;105662;1296;22549;-80
2023/03/19 10:53:26;;;;;;;17.30;5.40;;;;;;;7.56;100.00;101144.95;105626;1296;26697;-78
2023/03/19 10:56:06;;;;;;;12.20;6.10;;;;;;;7.58;100.00;101137.48;104975;1296;1003768;-76
2023/03/19 10:58:39;;;;;;;19.30;5.60;;;;;;;7.56;100.00;101134.52;105496;1296;25400;-79
2023/03/19 11:01:10;;;;;;;11.00;5.80;;;;;;;7.57;100.00;101126.04;105638;1296;26769;-76
2023/03/19 11:03:51;;;;;;;14.10;6.50;;;;;;;7.57;100.00;101124.81;105541;1296;26480;-76
2023/03/19 11:06:40;;;;;;;13.60;6.60;;;;;;;7.41;100.00;101138.07;105568;1296;25378;-76
2023/03/19 11:09:15;;;;;;;10.90;6.10;;;;;;;7.27;100.00;101136.39;105542;1296;25452;-75
2023/03/19 11:11:44;;;;;;;;;;;;;;;7.20;100.00;101134.18;105575;1286;24481;-77
2023/03/19 11:14:24;;;;;;;13.60;5.70;;;;;;;7.24;100.00;101126.02;105473;1296;22493;-79
2023/03/19 11:17:02;;;;;;;9.50;4.50;;;;;;;7.22;100.00;101124.16;105617;1296;23148;-76
2023/03/19 11:19:38;;;;;;;15.40;5.70;;;;;;;7.28;100.00;101120.34;105672;1296;25274;-74
2023/03/19 11:22:08;;;;;;;11.60;6.10;;;;;;;7.35;100.00;101125.31;105682;1296;22548;-77
2023/03/19 11:24:38;;;;;;;17.50;6.10;;;;;;;7.38;100.00;101122.05;105497;1296;25277;-78
2023/03/19 11:27:08;;;;;;;19.80;6.50;;;;;;;7.37;100.00;101116.17;105603;1296;26512;-77
2023/03/19 11:29:42;;;;;;;20.20;7.20;;;;;;;7.37;100.00;101112.21;105703;1296;25378;-76
2023/03/19 11:32:32;;;;;;;15.40;6.40;;;;;;;7.39;100.00;101102.36;105680;1296;25437;-77
2023/03/19 11:35:20;;;;;;;19.50;5.80;;;;;;;7.41;100.00;101104.55;105530;1296;25552;-78
2023/03/19 11:38:00;;;;;;;12.80;5.80;;;;;;;7.38;100.00;101099.77;105642;1296;25442;-78